Time;durP1;ratioP1;P1;durP2;ratioP2;P2;SDS_P1;SDS_P2;PMS_P1;PMS_P2;Temp;Humidity;BMP_temperature;BMP_pressure;BME280_temperature;BME280_humidity;BME280_pressure;Samples;Min_cycle;Max_cycle;Signal;HPM_P1;HPM_P2
2022/09/07 00:01:01;;;;;;;4.00;1.88;;;;;;;;;;5049403;28;20234;-72
2022/09/07 00:03:28;;;;;;;1.33;1.33;;;;;;;;;;5050553;28;20200;-72
2022/09/07 00:05:55;;;;;;;2.20;2.10;;;;;;;;;;5050067;28;20588;-71
2022/09/07 00:08:23;;;;;;;2.92;1.92;;;;;;;;;;5053516;28;20269;-71
2022/09/07 00:10:54;;;;;;;1.52;1.52;;;;;;;;;;5058227;28;20716;-71
2022/09/07 00:13:21;;;;;;;1.67;1.67;;;;;;;;;;5054713;28;20261;-72
2022/09/07 00:15:49;;;;;;;1.60;1.60;;;;;;;;;;5058964;28;20196;-71
2022/09/07 00:18:16;;;;;;;1.75;1.70;;;;;;;;;;5051241;28;20231;-71
2022/09/07 00:20:43;;;;;;;1.80;1.80;;;;;;;;;;5055586;28;20231;-71
2022/09/07 00:23:10;;;;;;;1.80;1.70;;;;;;;;;;5057421;28;20231;-72
2022/09/07 00:25:38;;;;;;;1.48;1.38;;;;;;;;;;5052442;28;20218;-72
2022/09/07 00:28:05;;;;;;;1.48;1.48;;;;;;;;;;5062892;28;20676;-71
2022/09/07 00:30:32;;;;;;;2.08;1.98;;;;;;;;;;5052076;28;20776;-71
2022/09/07 00:33:01;;;;;;;1.95;1.60;;;;;;;;;;5051986;28;20203;-72
2022/09/07 00:35:28;;;;;;;1.75;1.65;;;;;;;;;;5054264;28;20211;-71
2022/09/07 00:37:55;;;;;;;1.55;1.55;;;;;;;;;;5049323;28;20211;-71
2022/09/07 00:40:22;;;;;;;1.63;1.63;;;;;;;;;;5048651;28;21070;-71
2022/09/07 00:42:49;;;;;;;1.50;1.40;;;;;;;;;;5055117;28;20257;-72
2022/09/07 00:45:16;;;;;;;1.80;1.70;;;;;;;;;;5051957;28;20206;-71
2022/09/07 00:47:49;;;;;;;1.50;1.50;;;;;;;;;;5068579;28;20216;-71
2022/09/07 00:50:20;;;;;;;1.38;1.38;;;;;;;;;;5066779;28;20288;-71
2022/09/07 00:52:49;;;;;;;1.08;1.05;;;;;;;;;;5066230;28;20207;-71
2022/09/07 00:55:17;;;;;;;1.13;1.13;;;;;;;;;;5065832;28;20604;-71
2022/09/07 00:57:48;;;;;;;1.80;1.77;;;;;;;;;;5068077;28;20665;-71
2022/09/07 01:00:15;;;;;;;1.20;1.20;;;;;;;;;;5051860;28;20206;-71
2022/09/07 01:02:42;;;;;;;1.48;1.42;;;;;;;;;;5061915;28;20207;-71
2022/09/07 01:05:14;;;;;;;1.70;1.60;;;;;;;;;;5048035;28;20203;-71
2022/09/07 01:07:43;;;;;;;1.30;1.30;;;;;;;;;;5050988;28;20208;-71
2022/09/07 01:10:10;;;;;;;1.70;1.58;;;;;;;;;;5059623;28;20694;-70
2022/09/07 01:12:37;;;;;;;2.83;1.52;;;;;;;;;;5064298;28;20203;-71
2022/09/07 01:15:05;;;;;;;1.67;1.48;;;;;;;;;;5050318;28;20257;-71
2022/09/07 01:17:38;;;;;;;1.55;1.55;;;;;;;;;;5053436;28;20224;-70
2022/09/07 01:20:26;;;;;;;1.48;1.38;;;;;;;;;;5049546;28;20257;-71
2022/09/07 01:23:04;;;;;;;1.80;1.38;;;;;;;;;;5037306;28;20257;-70
2022/09/07 01:25:37;;;;;;;2.00;1.50;;;;;;;;;;5064307;28;20226;-71
2022/09/07 01:28:09;;;;;;;1.30;1.20;;;;;;;;;;5062532;28;20215;-71
2022/09/07 01:30:37;;;;;;;1.30;1.30;;;;;;;;;;5052796;28;20670;-71
2022/09/07 01:33:09;;;;;;;1.25;1.15;;;;;;;;;;5069449;28;20562;-71
2022/09/07 01:35:42;;;;;;;1.65;1.55;;;;;;;;;;5058540;28;20715;-71
2022/09/07 01:38:11;;;;;;;1.63;1.52;;;;;;;;;;5051174;28;20204;-72
2022/09/07 01:40:42;;;;;;;1.70;1.40;;;;;;;;;;5063479;28;20260;-71
2022/09/07 01:43:12;;;;;;;1.60;1.50;;;;;;;;;;5065598;28;20666;-71
2022/09/07 01:45:40;;;;;;;4.78;1.45;;;;;;;;;;5061436;28;20204;-72
2022/09/07 01:48:09;;;;;;;1.38;1.38;;;;;;;;;;5047163;28;20196;-71
2022/09/07 01:50:39;;;;;;;1.27;1.27;;;;;;;;;;5049263;28;20208;-71
2022/09/07 01:53:09;;;;;;;1.60;1.52;;;;;;;;;;5064209;28;20715;-72
2022/09/07 01:55:38;;;;;;;2.78;1.52;;;;;;;;;;5065960;28;20212;-72
2022/09/07 01:58:14;;;;;;;1.95;1.58;;;;;;;;;;5060591;28;20207;-71
2022/09/07 02:00:44;;;;;;;1.38;1.38;;;;;;;;;;5050317;28;20203;-71
2022/09/07 02:03:13;;;;;;;1.38;1.35;;;;;;;;;;5049661;28;20203;-71
2022/09/07 02:05:43;;;;;;;1.60;1.50;;;;;;;;;;5062184;28;20247;-70
2022/09/07 02:08:13;;;;;;;3.78;1.33;;;;;;;;;;5064573;28;20666;-70
2022/09/07 02:10:42;;;;;;;4.00;1.60;;;;;;;;;;5056739;28;20210;-70
2022/09/07 02:13:14;;;;;;;1.65;1.58;;;;;;;;;;5049996;28;20618;-70
2022/09/07 02:15:44;;;;;;;1.05;1.05;;;;;;;;;;5048185;28;20855;-70
2022/09/07 02:18:12;;;;;;;1.38;1.38;;;;;;;;;;5046600;28;20246;-71
2022/09/07 02:20:40;;;;;;;4.03;2.08;;;;;;;;;;5047627;28;20240;-69
2022/09/07 02:23:09;;;;;;;2.20;2.10;;;;;;;;;;5047264;28;20618;-71
2022/09/07 02:25:37;;;;;;;2.47;2.30;;;;;;;;;;5046627;28;20208;-70
2022/09/07 02:28:07;;;;;;;3.42;2.38;;;;;;;;;;5061758;28;20218;-70
2022/09/07 02:30:35;;;;;;;3.60;2.08;;;;;;;;;;5057629;28;20204;-69
2022/09/07 02:33:02;;;;;;;4.18;2.35;;;;;;;;;;5047821;28;20295;-70
2022/09/07 02:35:29;;;;;;;2.20;2.10;;;;;;;;;;5047180;28;20204;-70
2022/09/07 02:37:57;;;;;;;3.63;2.20;;;;;;;;;;5045965;28;20269;-69
2022/09/07 02:40:24;;;;;;;2.40;2.20;;;;;;;;;;5053267;28;20214;-69
2022/09/07 02:42:51;;;;;;;4.28;1.95;;;;;;;;;;5058604;28;20255;-69
2022/09/07 02:45:26;;;;;;;2.13;2.00;;;;;;;;;;5063201;28;20886;-70
2022/09/07 02:48:02;;;;;;;2.33;2.15;;;;;;;;;;5060863;28;20202;-70
2022/09/07 02:50:38;;;;;;;1.58;1.58;;;;;;;;;;5049881;28;20211;-69
2022/09/07 02:53:13;;;;;;;2.17;2.08;;;;;;;;;;5050680;28;20199;-70
2022/09/07 02:55:45;;;;;;;2.75;2.38;;;;;;;;;;5063739;28;20203;-70
2022/09/07 02:58:19;;;;;;;2.10;1.90;;;;;;;;;;5059912;28;20260;-70
2022/09/07 03:00:51;;;;;;;1.83;1.67;;;;;;;;;;5064590;28;20677;-70
2022/09/07 03:03:23;;;;;;;2.22;2.13;;;;;;;;;;5053046;28;20199;-71
2022/09/07 03:05:51;;;;;;;2.47;2.25;;;;;;;;;;5049801;28;20204;-71
2022/09/07 03:08:20;;;;;;;1.75;1.65;;;;;;;;;;5051640;28;20204;-71
2022/09/07 03:10:48;;;;;;;1.92;1.83;;;;;;;;;;5053582;28;20200;-71
2022/09/07 03:13:22;;;;;;;2.47;1.70;;;;;;;;;;5068592;28;20206;-71
2022/09/07 03:15:49;;;;;;;2.80;1.88;;;;;;;;;;5065859;28;20203;-71
2022/09/07 03:18:16;;;;;;;2.53;2.03;;;;;;;;;;5054473;28;20222;-71
2022/09/07 03:20:44;;;;;;;2.10;2.10;;;;;;;;;;5064125;28;20203;-70
2022/09/07 03:23:11;;;;;;;2.33;2.22;;;;;;;;;;5050857;28;20243;-71
2022/09/07 03:25:38;;;;;;;3.05;2.13;;;;;;;;;;5050726;28;20280;-72
2022/09/07 03:28:05;;;;;;;1.85;1.75;;;;;;;;;;5065377;28;20199;-71
2022/09/07 03:30:33;;;;;;;2.22;2.15;;;;;;;;;;5051067;28;20246;-72
2022/09/07 03:33:00;;;;;;;4.18;2.17;;;;;;;;;;5050628;28;20250;-72
2022/09/07 03:35:27;;;;;;;2.15;2.05;;;;;;;;;;5063461;28;20268;-71
2022/09/07 03:37:55;;;;;;;3.45;2.38;;;;;;;;;;5050676;28;20265;-71
2022/09/07 03:40:22;;;;;;;2.35;2.15;;;;;;;;;;5050465;28;20569;-72
2022/09/07 03:42:50;;;;;;;2.55;2.35;;;;;;;;;;5049897;28;20227;-71
2022/09/07 03:45:17;;;;;;;2.97;2.13;;;;;;;;;;5052165;28;20251;-71
2022/09/07 03:47:44;;;;;;;2.47;2.38;;;;;;;;;;5051977;28;20208;-72
2022/09/07 03:50:11;;;;;;;2.33;2.22;;;;;;;;;;5052088;28;20659;-72
2022/09/07 03:52:38;;;;;;;2.47;2.13;;;;;;;;;;5057166;28;20233;-71
2022/09/07 03:55:07;;;;;;;2.55;2.42;;;;;;;;;;5056111;28;20233;-71
2022/09/07 03:57:34;;;;;;;4.22;2.03;;;;;;;;;;5058361;28;20264;-72
2022/09/07 04:00:02;;;;;;;4.72;2.08;;;;;;;;;;5067433;28;20623;-72
2022/09/07 04:02:29;;;;;;;2.08;1.80;;;;;;;;;;5058378;28;20309;-72
2022/09/07 04:04:56;;;;;;;1.85;1.75;;;;;;;;;;5059599;28;20208;-72
2022/09/07 04:07:23;;;;;;;2.10;2.00;;;;;;;;;;5060468;28;20215;-73
2022/09/07 04:09:50;;;;;;;2.65;2.45;;;;;;;;;;5051866;28;20208;-71
2022/09/07 04:12:19;;;;;;;3.20;2.17;;;;;;;;;;5060704;28;20200;-72
2022/09/07 04:14:46;;;;;;;3.35;2.58;;;;;;;;;;5062507;28;20203;-73
2022/09/07 04:17:13;;;;;;;2.17;2.05;;;;;;;;;;5055237;28;20195;-72
2022/09/07 04:19:40;;;;;;;2.50;2.35;;;;;;;;;;5056648;28;20204;-72
2022/09/07 04:22:10;;;;;;;2.60;2.50;;;;;;;;;;5059836;28;20219;-71
2022/09/07 04:24:37;;;;;;;2.70;2.50;;;;;;;;;;5055836;28;20222;-71
2022/09/07 04:27:04;;;;;;;2.85;2.65;;;;;;;;;;5066352;28;20268;-72
2022/09/07 04:29:33;;;;;;;2.85;2.10;;;;;;;;;;5062383;28;20210;-72
2022/09/07 04:32:00;;;;;;;2.22;2.00;;;;;;;;;;5049718;28;20649;-73
2022/09/07 04:34:27;;;;;;;2.05;1.95;;;;;;;;;;5049639;28;20207;-72
2022/09/07 04:36:54;;;;;;;2.60;2.38;;;;;;;;;;5050319;28;20223;-72
2022/09/07 04:39:21;;;;;;;2.10;2.00;;;;;;;;;;5053067;28;20248;-72
2022/09/07 04:41:48;;;;;;;2.22;2.13;;;;;;;;;;5062813;28;20416;-71
2022/09/07 04:44:15;;;;;;;1.88;1.80;;;;;;;;;;5055975;28;20211;-72
2022/09/07 04:46:44;;;;;;;2.38;2.13;;;;;;;;;;5068546;28;20210;-72
2022/09/07 04:49:11;;;;;;;4.88;2.63;;;;;;;;;;5061990;28;20225;-72
2022/09/07 04:51:41;;;;;;;3.08;2.03;;;;;;;;;;5050991;28;20208;-72
2022/09/07 04:54:08;;;;;;;2.03;1.92;;;;;;;;;;5056245;28;20298;-73
2022/09/07 04:56:35;;;;;;;2.28;2.13;;;;;;;;;;5055932;28;20682;-70
2022/09/07 04:59:02;;;;;;;2.50;2.28;;;;;;;;;;5053871;28;20613;-72
2022/09/07 05:01:29;;;;;;;2.13;2.03;;;;;;;;;;5052580;28;20204;-70
2022/09/07 05:03:59;;;;;;;2.70;2.30;;;;;;;;;;5053686;28;20200;-69
2022/09/07 05:06:26;;;;;;;2.25;2.15;;;;;;;;;;5051323;28;20728;-70
2022/09/07 05:08:54;;;;;;;2.28;2.13;;;;;;;;;;5070894;28;20207;-70
2022/09/07 05:11:21;;;;;;;2.80;2.60;;;;;;;;;;5056210;28;20634;-72
2022/09/07 05:13:48;;;;;;;2.72;2.53;;;;;;;;;;5048324;28;20212;-71
2022/09/07 05:16:16;;;;;;;2.03;1.92;;;;;;;;;;5050245;28;20261;-70
2022/09/07 05:18:43;;;;;;;3.83;2.30;;;;;;;;;;5050364;28;20230;-71
2022/09/07 05:21:14;;;;;;;2.38;2.28;;;;;;;;;;5060029;28;20207;-71
2022/09/07 05:23:41;;;;;;;2.90;2.70;;;;;;;;;;5066738;28;20231;-70
2022/09/07 05:26:08;;;;;;;2.70;2.60;;;;;;;;;;5058904;28;20235;-67
2022/09/07 05:28:36;;;;;;;2.92;2.72;;;;;;;;;;5069481;28;20260;-75
2022/09/07 05:31:07;;;;;;;3.83;2.58;;;;;;;;;;5053951;28;20257;-69
2022/09/07 05:33:34;;;;;;;2.50;2.40;;;;;;;;;;5058486;28;20896;-69
2022/09/07 05:36:01;;;;;;;2.75;2.55;;;;;;;;;;5048018;28;20208;-72
2022/09/07 05:38:30;;;;;;;2.67;2.47;;;;;;;;;;5048427;28;20339;-72
2022/09/07 05:40:59;;;;;;;2.30;2.20;;;;;;;;;;5050829;28;20216;-72
2022/09/07 05:43:26;;;;;;;2.38;2.17;;;;;;;;;;5050106;28;20242;-72
2022/09/07 05:45:55;;;;;;;2.75;2.55;;;;;;;;;;5049986;28;20274;-72
2022/09/07 05:48:22;;;;;;;3.55;2.50;;;;;;;;;;5049376;28;20582;-69
2022/09/07 05:50:52;;;;;;;2.83;2.67;;;;;;;;;;5049497;28;20220;-67
2022/09/07 05:53:19;;;;;;;3.47;2.55;;;;;;;;;;5055684;28;20260;-68
2022/09/07 05:55:48;;;;;;;3.00;2.80;;;;;;;;;;5068872;28;20318;-68
2022/09/07 05:58:15;;;;;;;3.03;2.83;;;;;;;;;;5053117;28;20765;-68
2022/09/07 06:00:43;;;;;;;2.60;2.50;;;;;;;;;;5069337;28;20241;-68
2022/09/07 06:03:10;;;;;;;3.10;2.70;;;;;;;;;;5057630;28;20293;-69
2022/09/07 06:05:37;;;;;;;2.88;2.67;;;;;;;;;;5052120;28;20204;-69
2022/09/07 06:08:05;;;;;;;3.45;3.22;;;;;;;;;;5055354;28;20208;-69
2022/09/07 06:10:34;;;;;;;3.85;2.92;;;;;;;;;;5063153;28;20249;-70
2022/09/07 06:13:03;;;;;;;3.00;2.83;;;;;;;;;;5050778;28;20203;-70
2022/09/07 06:15:30;;;;;;;4.20;2.92;;;;;;;;;;5058023;28;20207;-71
2022/09/07 06:17:57;;;;;;;2.95;2.72;;;;;;;;;;5069054;28;20231;-70
2022/09/07 06:20:24;;;;;;;2.45;2.13;;;;;;;;;;5067525;28;20210;-70
2022/09/07 06:22:51;;;;;;;2.28;2.17;;;;;;;;;;5068641;28;20219;-70
2022/09/07 06:25:18;;;;;;;2.00;1.90;;;;;;;;;;5069218;28;20256;-70
2022/09/07 06:27:47;;;;;;;7.18;2.20;;;;;;;;;;5067341;28;20203;-69
2022/09/07 06:30:16;;;;;;;4.15;2.25;;;;;;;;;;5068809;28;20737;-69
2022/09/07 06:32:43;;;;;;;2.00;1.90;;;;;;;;;;5066849;28;20203;-69
2022/09/07 06:35:11;;;;;;;1.95;1.83;;;;;;;;;;5068883;28;20207;-69
2022/09/07 06:37:38;;;;;;;2.33;2.17;;;;;;;;;;5066365;28;20389;-69
2022/09/07 06:40:06;;;;;;;2.05;1.67;;;;;;;;;;5048291;28;20207;-69
2022/09/07 06:42:33;;;;;;;1.88;1.77;;;;;;;;;;5047554;28;20285;-69
2022/09/07 06:45:00;;;;;;;2.58;1.73;;;;;;;;;;5055616;28;20204;-69
2022/09/07 06:47:28;;;;;;;1.92;1.77;;;;;;;;;;5066802;28;20207;-70
2022/09/07 06:49:55;;;;;;;2.55;1.75;;;;;;;;;;5067651;28;20226;-70
2022/09/07 06:52:23;;;;;;;3.45;2.00;;;;;;;;;;5056392;28;20208;-69
2022/09/07 06:54:50;;;;;;;1.85;1.75;;;;;;;;;;5048654;28;20204;-69
2022/09/07 06:57:17;;;;;;;1.73;1.60;;;;;;;;;;5048393;28;20207;-69
2022/09/07 06:59:44;;;;;;;2.17;2.00;;;;;;;;;;5064901;28;20356;-70
2022/09/07 07:02:12;;;;;;;2.78;2.33;;;;;;;;;;5068281;28;20223;-69
2022/09/07 07:04:40;;;;;;;1.50;1.50;;;;;;;;;;5068062;28;20298;-69
2022/09/07 07:07:10;;;;;;;1.90;1.80;;;;;;;;;;5068428;28;20221;-70
2022/09/07 07:09:37;;;;;;;1.92;1.80;;;;;;;;;;5067738;28;20317;-70
2022/09/07 07:12:04;;;;;;;1.80;1.80;;;;;;;;;;5067244;28;20330;-70
2022/09/07 07:14:32;;;;;;;1.88;1.60;;;;;;;;;;5067784;28;20229;-70
2022/09/07 07:16:59;;;;;;;3.20;1.80;;;;;;;;;;5067211;28;20207;-69
2022/09/07 07:19:26;;;;;;;2.90;1.70;;;;;;;;;;5053013;28;20208;-69
2022/09/07 07:21:54;;;;;;;2.00;1.88;;;;;;;;;;5067333;28;20661;-69
2022/09/07 07:24:21;;;;;;;1.70;1.70;;;;;;;;;;5067423;28;20243;-69
2022/09/07 07:26:48;;;;;;;2.20;1.50;;;;;;;;;;5067904;28;20218;-69
2022/09/07 07:29:15;;;;;;;3.35;1.40;;;;;;;;;;5067312;28;20537;-69
2022/09/07 07:31:42;;;;;;;1.95;1.50;;;;;;;;;;5067448;28;20272;-70
2022/09/07 07:34:09;;;;;;;1.92;1.80;;;;;;;;;;5067032;28;20211;-70
2022/09/07 07:36:36;;;;;;;1.63;1.52;;;;;;;;;;5067542;28;20211;-69
2022/09/07 07:39:05;;;;;;;2.05;1.60;;;;;;;;;;5067551;28;20309;-70
2022/09/07 07:41:32;;;;;;;1.48;1.48;;;;;;;;;;5067265;28;20211;-70
2022/09/07 07:43:59;;;;;;;1.45;1.45;;;;;;;;;;5067117;28;20246;-70
2022/09/07 07:46:27;;;;;;;1.27;1.25;;;;;;;;;;5067563;28;20218;-70
2022/09/07 07:48:54;;;;;;;1.70;1.70;;;;;;;;;;5067695;28;20265;-71
2022/09/07 07:51:22;;;;;;;1.73;1.17;;;;;;;;;;5062796;28;20204;-70
2022/09/07 07:53:49;;;;;;;1.65;1.65;;;;;;;;;;5049413;28;20246;-72
2022/09/07 07:56:17;;;;;;;1.48;1.42;;;;;;;;;;5050998;28;20222;-71
2022/09/07 07:58:45;;;;;;;1.55;1.40;;;;;;;;;;5054387;28;20207;-67
2022/09/07 08:01:13;;;;;;;1.23;1.20;;;;;;;;;;5050570;28;20210;-66
2022/09/07 08:03:42;;;;;;;1.20;1.20;;;;;;;;;;5061641;28;20223;-68
2022/09/07 08:06:10;;;;;;;3.00;1.48;;;;;;;;;;5061115;28;20302;-68
2022/09/07 08:08:37;;;;;;;1.40;1.30;;;;;;;;;;5061827;28;20258;-67
2022/09/07 08:11:07;;;;;;;1.20;1.20;;;;;;;;;;5050709;28;20265;-67
2022/09/07 08:13:35;;;;;;;1.95;1.20;;;;;;;;;;5063099;28;20210;-66
2022/09/07 08:16:04;;;;;;;1.30;1.27;;;;;;;;;;5068054;28;20252;-64
2022/09/07 08:18:32;;;;;;;1.92;1.48;;;;;;;;;;5054512;28;20317;-68
2022/09/07 08:21:01;;;;;;;2.05;1.27;;;;;;;;;;5063662;28;20227;-66
2022/09/07 08:23:28;;;;;;;2.67;1.30;;;;;;;;;;5056368;28;20238;-65
2022/09/07 08:25:57;;;;;;;1.48;1.42;;;;;;;;;;5055836;28;20203;-66
2022/09/07 08:28:24;;;;;;;1.52;1.42;;;;;;;;;;5051385;28;20208;-66
2022/09/07 08:30:52;;;;;;;2.85;1.33;;;;;;;;;;5070464;28;20237;-66
2022/09/07 08:33:19;;;;;;;2.17;1.52;;;;;;;;;;5069579;28;20626;-66
2022/09/07 08:35:57;;;;;;;1.17;1.17;;;;;;;;;;5050139;28;20203;-65
2022/09/07 08:38:24;;;;;;;1.17;1.17;;;;;;;;;;5050517;28;20546;-66
2022/09/07 08:40:51;;;;;;;1.40;1.25;;;;;;;;;;5069024;28;20203;-66
2022/09/07 08:43:25;;;;;;;1.08;1.05;;;;;;;;;;5066456;28;20273;-65
2022/09/07 08:45:56;;;;;;;1.73;1.20;;;;;;;;;;5054712;28;20199;-66
2022/09/07 08:51:19;;;;;;;1.13;1.10;;;;;;;;;;5062496;28;20210;-65
2022/09/07 08:53:46;;;;;;;1.25;1.13;;;;;;;;;;5058813;28;20207;-67
2022/09/07 08:56:16;;;;;;;1.00;1.00;;;;;;;;;;5057914;28;20210;-67
2022/09/07 08:58:44;;;;;;;1.05;1.05;;;;;;;;;;5070271;28;20742;-67
2022/09/07 09:01:13;;;;;;;1.00;1.00;;;;;;;;;;5054761;28;20208;-67
2022/09/07 09:03:41;;;;;;;2.50;0.85;;;;;;;;;;5059409;28;20285;-66
2022/09/07 09:06:11;;;;;;;2.15;0.80;;;;;;;;;;5059300;28;20210;-68
2022/09/07 09:08:47;;;;;;;1.35;1.05;;;;;;;;;;5055238;28;20901;-68
2022/09/07 09:11:19;;;;;;;4.03;1.13;;;;;;;;;;5050857;28;20975;-69
2022/09/07 09:13:51;;;;;;;1.27;1.00;;;;;;;;;;5058648;28;20195;-68
2022/09/07 09:16:24;;;;;;;1.98;1.33;;;;;;;;;;5052062;28;20221;-69
2022/09/07 09:19:04;;;;;;;1.23;0.90;;;;;;;;;;5049836;28;20227;-68
2022/09/07 09:21:32;;;;;;;1.25;1.10;;;;;;;;;;5049072;28;20239;-68
2022/09/07 09:24:01;;;;;;;1.23;1.02;;;;;;;;;;5049282;28;20251;-68
2022/09/07 09:26:28;;;;;;;2.28;1.25;;;;;;;;;;5049877;28;20211;-68
2022/09/07 09:28:56;;;;;;;1.42;1.30;;;;;;;;;;5049354;28;20211;-67
2022/09/07 09:31:26;;;;;;;1.38;1.23;;;;;;;;;;5057286;28;20199;-66
2022/09/07 09:34:10;;;;;;;6.85;1.48;;;;;;;;;;5069320;28;20674;-66
2022/09/07 09:36:41;;;;;;;0.77;0.77;;;;;;;;;;5069646;28;20214;-67
2022/09/07 09:39:24;;;;;;;1.20;1.20;;;;;;;;;;5069548;28;21054;-68
2022/09/07 09:41:52;;;;;;;0.95;0.73;;;;;;;;;;5068992;28;20218;-68
2022/09/07 09:44:19;;;;;;;3.78;1.00;;;;;;;;;;5069344;28;20333;-68
2022/09/07 09:46:49;;;;;;;1.08;1.08;;;;;;;;;;5058295;28;20214;-68
2022/09/07 09:49:18;;;;;;;1.92;1.02;;;;;;;;;;5068331;28;20246;-68
2022/09/07 09:51:46;;;;;;;1.42;0.80;;;;;;;;;;5049000;28;20211;-67
2022/09/07 09:54:21;;;;;;;1.00;1.00;;;;;;;;;;5068235;28;20211;-65
2022/09/07 09:56:48;;;;;;;1.70;0.90;;;;;;;;;;5049868;28;20217;-65
2022/09/07 09:59:21;;;;;;;1.30;1.13;;;;;;;;;;5051625;28;20215;-66
2022/09/07 10:01:51;;;;;;;1.00;1.00;;;;;;;;;;5061974;28;20203;-67
2022/09/07 10:04:26;;;;;;;2.28;1.10;;;;;;;;;;5066019;28;20637;-67
2022/09/07 10:06:54;;;;;;;1.10;0.75;;;;;;;;;;5059411;28;20360;-67
2022/09/07 10:09:22;;;;;;;1.95;0.85;;;;;;;;;;5049650;28;20212;-66
2022/09/07 10:11:52;;;;;;;1.33;1.23;;;;;;;;;;5063403;28;20248;-62
2022/09/07 10:14:22;;;;;;;0.80;0.80;;;;;;;;;;5060184;28;20208;-65
2022/09/07 10:16:51;;;;;;;1.13;0.93;;;;;;;;;;5049049;28;20278;-66
2022/09/07 10:19:25;;;;;;;2.45;1.08;;;;;;;;;;5049179;28;20729;-65
2022/09/07 10:21:56;;;;;;;0.88;0.88;;;;;;;;;;5051904;28;20228;-66
2022/09/07 10:24:25;;;;;;;1.67;1.00;;;;;;;;;;5047600;28;20235;-66
2022/09/07 10:26:52;;;;;;;2.65;0.95;;;;;;;;;;5047789;28;20264;-65
2022/09/07 10:29:24;;;;;;;1.08;0.98;;;;;;;;;;5047769;28;20207;-66
2022/09/07 10:31:58;;;;;;;1.13;0.98;;;;;;;;;;5047795;28;20204;-66
2022/09/07 10:34:29;;;;;;;1.55;1.05;;;;;;;;;;5047881;28;20196;-66
2022/09/07 10:37:02;;;;;;;2.35;0.80;;;;;;;;;;5048194;28;20207;-66
2022/09/07 10:39:32;;;;;;;1.23;1.00;;;;;;;;;;5048253;28;20621;-66
2022/09/07 10:42:02;;;;;;;0.80;0.80;;;;;;;;;;5047980;28;20215;-66
2022/09/07 10:44:37;;;;;;;0.85;0.85;;;;;;;;;;5066648;28;20277;-67
2022/09/07 10:47:09;;;;;;;1.40;0.90;;;;;;;;;;5067712;28;20213;-67
2022/09/07 10:49:41;;;;;;;1.00;0.98;;;;;;;;;;5047518;28;20691;-68
2022/09/07 10:52:13;;;;;;;0.90;0.90;;;;;;;;;;5047648;28;20810;-69
2022/09/07 10:54:44;;;;;;;0.70;0.70;;;;;;;;;;5047222;28;20541;-67
2022/09/07 10:57:19;;;;;;;1.08;1.05;;;;;;;;;;5048747;28;20212;-68
2022/09/07 10:59:50;;;;;;;1.10;1.10;;;;;;;;;;5049117;28;20594;-67
2022/09/07 11:02:21;;;;;;;1.48;1.35;;;;;;;;;;5048963;28;20234;-68
2022/09/07 11:04:55;;;;;;;1.38;1.38;;;;;;;;;;5047546;28;21009;-67
2022/09/07 11:07:27;;;;;;;1.98;1.00;;;;;;;;;;5049852;28;20300;-66
2022/09/07 11:09:58;;;;;;;4.15;2.92;;;;;;;;;;5059502;28;20561;-67
2022/09/07 11:12:28;;;;;;;3.60;1.35;;;;;;;;;;5047969;28;20246;-67
2022/09/07 11:14:59;;;;;;;1.20;1.00;;;;;;;;;;5047275;28;20273;-67
2022/09/07 11:17:28;;;;;;;124.95;62.20;;;;;;;;;;5049000;28;20780;-66
2022/09/07 11:20:03;;;;;;;28.33;15.48;;;;;;;;;;5049406;28;20204;-67
2022/09/07 11:22:33;;;;;;;1.73;1.60;;;;;;;;;;5057802;28;20229;-67
2022/09/07 11:25:05;;;;;;;4.95;3.58;;;;;;;;;;5046431;28;20231;-66
2022/09/07 11:27:33;;;;;;;5.38;3.20;;;;;;;;;;5047294;28;20293;-67
2022/09/07 11:30:04;;;;;;;1.15;1.15;;;;;;;;;;5050747;28;20207;-70
2022/09/07 11:32:35;;;;;;;2.25;1.95;;;;;;;;;;5056951;28;20202;-67
2022/09/07 11:35:06;;;;;;;1.60;1.48;;;;;;;;;;5061824;28;20214;-67
2022/09/07 11:37:37;;;;;;;1.45;1.45;;;;;;;;;;5062787;28;20653;-67
2022/09/07 11:40:05;;;;;;;1.52;1.52;;;;;;;;;;5057413;28;20227;-67
2022/09/07 11:42:33;;;;;;;1.70;1.40;;;;;;;;;;5068398;28;20504;-67
2022/09/07 11:45:02;;;;;;;1.10;1.10;;;;;;;;;;5061182;28;20227;-67
2022/09/07 11:47:33;;;;;;;1.90;1.50;;;;;;;;;;5050648;28;20212;-67
2022/09/07 11:50:01;;;;;;;1.38;1.38;;;;;;;;;;5052009;28;20257;-67
2022/09/07 11:52:32;;;;;;;1.52;1.13;;;;;;;;;;5066095;28;20218;-67
2022/09/07 11:55:03;;;;;;;1.00;1.00;;;;;;;;;;5062552;28;20242;-68
2022/09/07 11:57:37;;;;;;;1.45;1.38;;;;;;;;;;5070038;28;20203;-68
2022/09/07 12:00:07;;;;;;;1.30;1.20;;;;;;;;;;5065672;28;20684;-68
2022/09/07 12:02:44;;;;;;;1.00;1.00;;;;;;;;;;5057083;28;20203;-68
2022/09/07 12:05:21;;;;;;;1.35;1.20;;;;;;;;;;5052781;28;20234;-64
2022/09/07 12:08:09;;;;;;;1.35;1.30;;;;;;;;;;5070243;28;20215;-64
2022/09/07 12:10:41;;;;;;;2.17;1.10;;;;;;;;;;5065705;28;20268;-65
2022/09/07 12:13:28;;;;;;;1.00;1.00;;;;;;;;;;5069263;28;20219;-64
2022/09/07 12:15:59;;;;;;;1.20;1.20;;;;;;;;;;5054196;28;20199;-64
2022/09/07 12:18:31;;;;;;;1.00;1.00;;;;;;;;;;5051117;28;20286;-64
2022/09/07 12:21:00;;;;;;;1.20;1.10;;;;;;;;;;5050143;28;20204;-65
2022/09/07 12:23:29;;;;;;;1.10;1.10;;;;;;;;;;5060232;28;20238;-65
2022/09/07 12:26:11;;;;;;;1.77;1.02;;;;;;;;;;5068237;28;20319;-65
2022/09/07 12:28:57;;;;;;;1.08;1.00;;;;;;;;;;5066824;28;20373;-65
2022/09/07 12:31:39;;;;;;;1.25;1.15;;;;;;;;;;5060677;28;20199;-65
2022/09/07 12:34:24;;;;;;;1.00;1.00;;;;;;;;;;5056683;28;20274;-65
2022/09/07 12:36:53;;;;;;;0.80;0.80;;;;;;;;;;5049953;28;20631;-65
2022/09/07 12:39:23;;;;;;;1.65;1.02;;;;;;;;;;5049768;28;20266;-64
2022/09/07 12:41:52;;;;;;;0.95;0.95;;;;;;;;;;5060509;28;20203;-65
2022/09/07 12:44:21;;;;;;;1.00;1.00;;;;;;;;;;5053021;28;20223;-65
2022/09/07 12:46:52;;;;;;;2.30;0.65;;;;;;;;;;5056914;28;20207;-66
2022/09/07 12:49:26;;;;;;;0.90;0.90;;;;;;;;;;5065188;28;20213;-66
2022/09/07 12:51:58;;;;;;;0.63;0.63;;;;;;;;;;5066324;28;20237;-65
2022/09/07 12:54:28;;;;;;;0.77;0.77;;;;;;;;;;5060138;28;20198;-65
2022/09/07 12:56:58;;;;;;;0.77;0.77;;;;;;;;;;5066138;28;20241;-65
2022/09/07 12:59:43;;;;;;;3.03;1.00;;;;;;;;;;5069421;28;20233;-65
2022/09/07 13:02:25;;;;;;;0.60;0.60;;;;;;;;;;5067172;28;20207;-65
2022/09/07 13:05:04;;;;;;;0.68;0.68;;;;;;;;;;5049261;28;20236;-64
2022/09/07 13:07:47;;;;;;;0.73;0.70;;;;;;;;;;5063454;28;20211;-64
2022/09/07 13:10:22;;;;;;;0.60;0.60;;;;;;;;;;5068997;28;20217;-64
2022/09/07 13:12:51;;;;;;;0.50;0.50;;;;;;;;;;5053239;28;20207;-64
2022/09/07 13:15:35;;;;;;;0.60;0.60;;;;;;;;;;5049265;28;20208;-65
2022/09/07 13:18:03;;;;;;;0.75;0.52;;;;;;;;;;5065779;28;20241;-65
2022/09/07 13:20:31;;;;;;;0.60;0.60;;;;;;;;;;5068049;28;20272;-65
2022/09/07 13:23:17;;;;;;;0.55;0.55;;;;;;;;;;5048525;28;20682;-65
2022/09/07 13:25:52;;;;;;;0.60;0.60;;;;;;;;;;5064821;28;20986;-65
2022/09/07 13:28:33;;;;;;;0.52;0.52;;;;;;;;;;5065609;28;20245;-64
2022/09/07 13:31:06;;;;;;;0.60;0.60;;;;;;;;;;5062144;28;20273;-65
2022/09/07 13:33:43;;;;;;;0.60;0.60;;;;;;;;;;5049480;28;20270;-64
2022/09/07 13:36:18;;;;;;;0.60;0.60;;;;;;;;;;5049648;28;20200;-65
2022/09/07 13:38:46;;;;;;;2.95;0.73;;;;;;;;;;5048551;28;20214;-64
2022/09/07 13:41:15;;;;;;;0.50;0.50;;;;;;;;;;5049632;28;20211;-65
2022/09/07 13:43:47;;;;;;;0.80;0.80;;;;;;;;;;5048261;28;20281;-65
2022/09/07 13:46:18;;;;;;;1.38;0.80;;;;;;;;;;5050613;28;20689;-64
2022/09/07 13:48:48;;;;;;;0.80;0.80;;;;;;;;;;5068122;28;20211;-64
2022/09/07 13:51:17;;;;;;;0.50;0.50;;;;;;;;;;5065557;28;20249;-65
2022/09/07 13:53:51;;;;;;;5.38;1.10;;;;;;;;;;5047865;28;20207;-64
2022/09/07 13:56:22;;;;;;;0.50;0.50;;;;;;;;;;5048233;28;20203;-65
2022/09/07 13:58:50;;;;;;;0.60;0.60;;;;;;;;;;5047389;28;20211;-63
2022/09/07 14:01:19;;;;;;;0.60;0.60;;;;;;;;;;5048579;28;20200;-65
2022/09/07 14:03:48;;;;;;;2.13;0.90;;;;;;;;;;5065749;28;20195;-64
2022/09/07 14:06:30;;;;;;;1.00;0.90;;;;;;;;;;5055829;28;20262;-65
2022/09/07 14:09:00;;;;;;;1.13;0.80;;;;;;;;;;5047304;28;20200;-65
2022/09/07 14:11:28;;;;;;;1.27;0.75;;;;;;;;;;5055113;28;20225;-65
2022/09/07 14:14:08;;;;;;;0.98;0.63;;;;;;;;;;5066068;28;20220;-64
2022/09/07 14:16:35;;;;;;;1.92;0.80;;;;;;;;;;5059816;28;20248;-65
2022/09/07 14:19:02;;;;;;;1.40;0.93;;;;;;;;;;5057429;28;20268;-65
2022/09/07 14:21:29;;;;;;;0.60;0.60;;;;;;;;;;5063991;28;20211;-65
2022/09/07 14:24:02;;;;;;;0.85;0.80;;;;;;;;;;5062753;28;20312;-59
2022/09/07 14:26:30;;;;;;;0.70;0.70;;;;;;;;;;5068561;28;20241;-65
2022/09/07 14:28:59;;;;;;;0.77;0.77;;;;;;;;;;5065769;28;20238;-65
2022/09/07 14:31:27;;;;;;;1.35;0.73;;;;;;;;;;5048663;28;20309;-64
2022/09/07 14:33:55;;;;;;;0.88;0.63;;;;;;;;;;5057343;28;20207;-64
2022/09/07 14:36:26;;;;;;;0.47;0.47;;;;;;;;;;5061766;28;20203;-64
2022/09/07 14:38:53;;;;;;;0.60;0.60;;;;;;;;;;5049038;28;20212;-64
2022/09/07 14:41:21;;;;;;;0.70;0.70;;;;;;;;;;5065688;28;20204;-64
2022/09/07 14:43:53;;;;;;;0.50;0.50;;;;;;;;;;5067820;28;20665;-65
2022/09/07 14:46:22;;;;;;;1.08;0.50;;;;;;;;;;5064318;28;20226;-64
2022/09/07 14:48:50;;;;;;;0.47;0.47;;;;;;;;;;5047846;28;20222;-64
2022/09/07 14:51:21;;;;;;;0.50;0.50;;;;;;;;;;5047914;28;20281;-64
2022/09/07 14:53:49;;;;;;;0.57;0.52;;;;;;;;;;5051590;28;20950;-65
2022/09/07 14:56:19;;;;;;;0.50;0.50;;;;;;;;;;5066942;28;20285;-64
2022/09/07 14:58:49;;;;;;;0.70;0.70;;;;;;;;;;5047357;28;20340;-65
2022/09/07 15:01:21;;;;;;;1.08;0.40;;;;;;;;;;5056840;28;20298;-65